createdAt,value
2017-12-31T00:01:26.746Z,-66
2017-12-31T00:03:55.554Z,-65
2017-12-31T00:06:23.884Z,-65
2017-12-31T00:08:52.998Z,-67
2017-12-31T00:11:21.532Z,-66
2017-12-31T00:13:50.806Z,-67
2017-12-31T00:16:19.317Z,-66
2017-12-31T00:18:48.013Z,-63
2017-12-31T00:21:16.875Z,-64
2017-12-31T00:23:45.561Z,-68
2017-12-31T00:26:15.025Z,-65
2017-12-31T00:28:44.156Z,-64
2017-12-31T00:31:12.877Z,-64
2017-12-31T00:33:42.340Z,-66
2017-12-31T00:36:10.817Z,-64
2017-12-31T00:38:39.182Z,-64
2017-12-31T00:41:09.008Z,-65
2017-12-31T00:43:38.257Z,-64
2017-12-31T00:46:07.967Z,-66
2017-12-31T00:48:36.305Z,-66
2017-12-31T00:51:05.889Z,-66
2017-12-31T00:53:37.121Z,-67
2017-12-31T00:56:07.836Z,-67
2017-12-31T00:58:37.361Z,-66
2017-12-31T01:01:05.832Z,-65
2017-12-31T01:03:34.561Z,-67
2017-12-31T01:06:03.059Z,-66
2017-12-31T01:08:31.546Z,-65
2017-12-31T01:11:00.156Z,-65
2017-12-31T01:13:28.848Z,-67
2017-12-31T01:15:59.088Z,-66
2017-12-31T01:18:27.580Z,-66
2017-12-31T01:20:57.296Z,-66
2017-12-31T01:23:27.246Z,-65
2017-12-31T01:25:56.513Z,-66
2017-12-31T01:28:25.711Z,-65
2017-12-31T01:30:54.498Z,-64
2017-12-31T01:33:23.229Z,-67
2017-12-31T01:35:52.230Z,-66
2017-12-31T01:38:21.666Z,-66
2017-12-31T01:40:50.888Z,-66
2017-12-31T01:43:19.957Z,-65
2017-12-31T01:45:49.207Z,-66
2017-12-31T01:48:17.793Z,-66
2017-12-31T01:50:46.327Z,-64
2017-12-31T01:53:14.756Z,-67
2017-12-31T01:55:43.951Z,-66
2017-12-31T02:00:56.787Z,-67
2017-12-31T02:03:28.031Z,-65
2017-12-31T02:05:56.893Z,-65
2017-12-31T02:08:25.360Z,-64
2017-12-31T02:10:54.361Z,-67
2017-12-31T02:13:23.688Z,-66
2017-12-31T02:15:52.520Z,-66
2017-12-31T02:18:21.352Z,-66
2017-12-31T02:20:50.133Z,-67
2017-12-31T02:23:18.460Z,-67
2017-12-31T02:25:46.824Z,-68
2017-12-31T02:28:15.592Z,-66
2017-12-31T02:30:44.128Z,-65
2017-12-31T02:33:13.445Z,-67
2017-12-31T02:35:42.428Z,-66
2017-12-31T02:38:11.681Z,-66
2017-12-31T02:40:40.650Z,-65
2017-12-31T02:43:09.352Z,-65
2017-12-31T02:45:37.665Z,-66
2017-12-31T02:48:05.811Z,-65
2017-12-31T02:50:34.381Z,-66
2017-12-31T02:53:02.625Z,-67
2017-12-31T02:55:31.497Z,-65
2017-12-31T02:58:01.057Z,-66
2017-12-31T03:00:29.320Z,-66
2017-12-31T03:02:58.228Z,-64
2017-12-31T03:05:26.408Z,-66
2017-12-31T03:07:56.132Z,-66
2017-12-31T03:10:24.824Z,-65
2017-12-31T03:12:53.201Z,-65
2017-12-31T03:15:21.993Z,-67
2017-12-31T03:17:51.567Z,-64
2017-12-31T03:20:20.912Z,-66
2017-12-31T03:22:50.580Z,-67
2017-12-31T03:25:19.325Z,-67
2017-12-31T03:27:47.544Z,-67
2017-12-31T03:30:16.659Z,-66
2017-12-31T03:32:45.409Z,-65
2017-12-31T03:35:15.236Z,-66
2017-12-31T03:37:44.844Z,-66
2017-12-31T03:40:13.201Z,-65
2017-12-31T03:42:42.837Z,-66
2017-12-31T03:45:11.448Z,-65
2017-12-31T03:47:40.661Z,-66
2017-12-31T03:50:10.552Z,-65
2017-12-31T03:52:38.915Z,-64
2017-12-31T03:55:07.421Z,-66
2017-12-31T03:57:35.671Z,-64
2017-12-31T04:00:06.172Z,-66
2017-12-31T04:02:36.438Z,-64
2017-12-31T04:05:05.456Z,-65
2017-12-31T04:07:33.676Z,-65
2017-12-31T04:10:02.950Z,-64
2017-12-31T04:12:33.312Z,-66
2017-12-31T04:15:02.921Z,-67
2017-12-31T04:17:31.356Z,-66
2017-12-31T04:20:00.488Z,-66
2017-12-31T04:22:29.900Z,-66
2017-12-31T04:24:59.228Z,-65
2017-12-31T04:27:27.413Z,-66
2017-12-31T04:29:56.009Z,-65
2017-12-31T04:32:24.438Z,-67
2017-12-31T04:34:54.432Z,-66
2017-12-31T04:37:22.778Z,-65
2017-12-31T04:39:52.028Z,-65
2017-12-31T04:42:21.482Z,-64
2017-12-31T04:44:49.997Z,-64
2017-12-31T04:47:18.348Z,-65
2017-12-31T04:49:47.452Z,-63
2017-12-31T04:52:15.693Z,-64
2017-12-31T04:54:44.601Z,-68
2017-12-31T04:57:14.201Z,-64
2017-12-31T04:59:42.385Z,-65
2017-12-31T05:02:13.036Z,-66
2017-12-31T05:04:41.518Z,-64
2017-12-31T05:07:11.198Z,-64
2017-12-31T05:09:39.968Z,-66
2017-12-31T05:12:09.140Z,-65
2017-12-31T05:14:38.276Z,-64
2017-12-31T05:17:08.725Z,-64
2017-12-31T05:19:37.083Z,-65
2017-12-31T05:22:06.512Z,-64
2017-12-31T05:24:35.298Z,-64
2017-12-31T05:27:04.632Z,-65
2017-12-31T05:29:37.427Z,-66
2017-12-31T05:32:05.965Z,-65
2017-12-31T05:34:34.356Z,-65
2017-12-31T05:37:03.391Z,-66
2017-12-31T05:39:32.000Z,-64
2017-12-31T05:42:00.413Z,-66
2017-12-31T05:44:29.356Z,-64
2017-12-31T05:46:57.745Z,-65
2017-12-31T05:49:26.992Z,-65
2017-12-31T05:51:55.872Z,-65
2017-12-31T05:54:28.937Z,-67
2017-12-31T05:56:57.774Z,-65
2017-12-31T05:59:27.480Z,-65
2017-12-31T06:01:57.144Z,-65
2017-12-31T06:04:27.693Z,-64
2017-12-31T06:06:56.416Z,-67
2017-12-31T06:09:25.388Z,-65
2017-12-31T06:11:53.789Z,-68
2017-12-31T06:14:23.089Z,-65
2017-12-31T06:16:51.449Z,-67
2017-12-31T06:19:21.445Z,-65
2017-12-31T06:21:51.119Z,-65
2017-12-31T06:24:20.576Z,-65
2017-12-31T06:26:49.498Z,-64
2017-12-31T06:29:19.355Z,-65
2017-12-31T06:31:49.830Z,-65
2017-12-31T06:34:19.673Z,-64
2017-12-31T06:36:48.358Z,-68
2017-12-31T06:39:17.496Z,-63
2017-12-31T06:41:47.190Z,-65
2017-12-31T06:44:15.566Z,-65
2017-12-31T06:46:44.120Z,-64
2017-12-31T06:49:13.494Z,-65
2017-12-31T06:51:42.526Z,-65
2017-12-31T06:54:11.000Z,-65
2017-12-31T06:56:40.152Z,-63
2017-12-31T06:59:09.054Z,-64
2017-12-31T07:01:38.465Z,-66
2017-12-31T07:04:08.436Z,-64
2017-12-31T07:06:37.567Z,-64
2017-12-31T07:09:06.266Z,-66
2017-12-31T07:11:34.949Z,-65
2017-12-31T07:14:04.395Z,-64
2017-12-31T07:16:32.662Z,-64
2017-12-31T07:19:01.159Z,-66
2017-12-31T07:21:29.712Z,-64
2017-12-31T07:23:58.141Z,-65
2017-12-31T07:26:28.396Z,-66
2017-12-31T07:28:58.621Z,-66
2017-12-31T07:31:28.309Z,-64
2017-12-31T07:33:58.152Z,-66
2017-12-31T07:36:29.273Z,-64
2017-12-31T07:38:58.100Z,-64
2017-12-31T07:41:26.509Z,-66
2017-12-31T07:43:54.673Z,-66
2017-12-31T07:46:24.989Z,-65
2017-12-31T07:48:53.521Z,-66
2017-12-31T07:51:22.313Z,-65
2017-12-31T07:53:51.657Z,-64
2017-12-31T07:56:21.782Z,-66
2017-12-31T07:58:53.177Z,-65
2017-12-31T08:01:22.200Z,-65
2017-12-31T08:03:51.057Z,-65
2017-12-31T08:06:21.198Z,-66
2017-12-31T08:08:49.445Z,-68
2017-12-31T08:11:18.377Z,-64
2017-12-31T08:13:46.871Z,-66
2017-12-31T08:16:14.989Z,-66
2017-12-31T08:18:43.416Z,-68
2017-12-31T08:21:11.916Z,-65
2017-12-31T08:23:40.612Z,-64
2017-12-31T08:26:10.508Z,-64
2017-12-31T08:28:40.001Z,-63
2017-12-31T08:31:08.400Z,-64
2017-12-31T08:33:37.265Z,-63
2017-12-31T08:36:07.853Z,-62
2017-12-31T08:38:36.352Z,-64
2017-12-31T08:41:04.731Z,-64
2017-12-31T08:43:33.672Z,-64
2017-12-31T08:46:02.898Z,-62
2017-12-31T08:48:31.916Z,-63
2017-12-31T08:51:01.023Z,-61
2017-12-31T08:53:30.697Z,-63
2017-12-31T08:55:59.420Z,-63
2017-12-31T08:58:27.904Z,-63
2017-12-31T09:00:56.547Z,-64
2017-12-31T09:03:24.825Z,-62
2017-12-31T09:05:53.622Z,-63
2017-12-31T09:08:25.039Z,-64
2017-12-31T09:10:54.445Z,-64
2017-12-31T09:13:22.780Z,-62
2017-12-31T09:15:51.466Z,-62
2017-12-31T09:18:19.989Z,-63
2017-12-31T09:20:50.940Z,-62
2017-12-31T09:23:20.241Z,-62
2017-12-31T09:25:48.430Z,-65
2017-12-31T09:28:17.076Z,-64
2017-12-31T09:30:47.045Z,-64
2017-12-31T09:33:15.668Z,-63
2017-12-31T09:35:44.112Z,-64
2017-12-31T09:38:12.541Z,-64
2017-12-31T09:40:42.708Z,-63
2017-12-31T09:43:11.705Z,-63
2017-12-31T09:45:40.664Z,-62
2017-12-31T09:48:09.568Z,-64
2017-12-31T09:50:38.680Z,-62
2017-12-31T09:53:07.416Z,-63
2017-12-31T09:55:35.924Z,-65
2017-12-31T09:58:06.808Z,-67
2017-12-31T10:00:35.213Z,-65
2017-12-31T10:03:03.569Z,-65
2017-12-31T10:05:32.506Z,-64
2017-12-31T10:08:01.729Z,-64
2017-12-31T10:10:31.167Z,-64
2017-12-31T10:13:00.584Z,-60
2017-12-31T10:15:29.734Z,-63
2017-12-31T10:17:58.236Z,-60
2017-12-31T10:20:27.664Z,-58
2017-12-31T10:22:56.368Z,-60
2017-12-31T10:25:26.053Z,-60
2017-12-31T10:27:54.936Z,-59
2017-12-31T10:30:23.702Z,-60
2017-12-31T10:32:51.836Z,-62
2017-12-31T10:35:21.081Z,-61
2017-12-31T10:37:50.125Z,-61
2017-12-31T10:40:19.536Z,-62
2017-12-31T10:42:48.068Z,-60
2017-12-31T10:45:18.464Z,-62
2017-12-31T10:47:47.236Z,-59
2017-12-31T10:50:15.957Z,-60
2017-12-31T10:52:44.260Z,-61
2017-12-31T10:55:13.248Z,-61
2017-12-31T10:57:42.086Z,-61
2017-12-31T11:00:10.529Z,-61
2017-12-31T11:02:41.868Z,-62
2017-12-31T11:05:11.154Z,-62
2017-12-31T11:07:39.626Z,-61
2017-12-31T11:10:07.917Z,-62
2017-12-31T11:12:36.285Z,-61
2017-12-31T11:15:05.197Z,-63
2017-12-31T11:17:33.607Z,-61
2017-12-31T11:20:03.577Z,-62
2017-12-31T11:22:32.149Z,-62
2017-12-31T11:25:03.893Z,-61
2017-12-31T11:27:32.524Z,-61
2017-12-31T11:30:02.309Z,-61
2017-12-31T11:32:32.262Z,-61
2017-12-31T11:35:01.530Z,-58
2017-12-31T11:37:30.485Z,-62
2017-12-31T11:39:59.548Z,-60
2017-12-31T11:42:28.333Z,-63
2017-12-31T11:44:56.478Z,-62
2017-12-31T11:47:24.996Z,-60
2017-12-31T11:49:53.181Z,-63
2017-12-31T11:52:21.661Z,-60
2017-12-31T11:54:52.881Z,-62
2017-12-31T11:57:22.157Z,-60
2017-12-31T11:59:50.617Z,-61
2017-12-31T12:02:20.946Z,-61
2017-12-31T12:04:50.309Z,-60
2017-12-31T12:07:18.704Z,-59
2017-12-31T12:09:47.477Z,-59
2017-12-31T12:12:15.937Z,-58
2017-12-31T12:14:45.680Z,-59
2017-12-31T12:17:14.916Z,-60
2017-12-31T12:19:43.328Z,-59
2017-12-31T12:22:12.184Z,-58
2017-12-31T12:24:41.141Z,-59
2017-12-31T12:27:10.363Z,-64
2017-12-31T12:29:39.644Z,-63
2017-12-31T12:32:07.994Z,-60
2017-12-31T12:34:37.223Z,-63
2017-12-31T12:37:05.557Z,-60
2017-12-31T12:39:34.457Z,-63
2017-12-31T12:42:02.976Z,-62
2017-12-31T12:44:32.818Z,-60
2017-12-31T12:47:01.332Z,-63
2017-12-31T12:49:30.119Z,-63
2017-12-31T12:51:59.621Z,-61
2017-12-31T12:54:28.405Z,-62
2017-12-31T12:56:56.945Z,-60
2017-12-31T12:59:25.585Z,-63
2017-12-31T13:01:54.910Z,-60
2017-12-31T13:04:25.072Z,-63
2017-12-31T13:06:53.845Z,-63
2017-12-31T13:09:22.048Z,-60
2017-12-31T13:11:50.449Z,-60
2017-12-31T13:14:19.245Z,-63
2017-12-31T13:16:47.836Z,-62
2017-12-31T13:19:16.779Z,-61
2017-12-31T13:21:45.158Z,-61
2017-12-31T13:24:14.124Z,-64
2017-12-31T13:26:43.789Z,-60
2017-12-31T13:29:12.170Z,-64
2017-12-31T13:31:40.302Z,-62
2017-12-31T13:34:08.865Z,-62
2017-12-31T13:36:38.101Z,-61
2017-12-31T13:39:06.951Z,-60
2017-12-31T13:41:36.175Z,-65
2017-12-31T13:44:04.315Z,-65
2017-12-31T13:46:32.456Z,-65
2017-12-31T13:49:01.017Z,-63
2017-12-31T13:51:31.433Z,-60
2017-12-31T13:54:02.757Z,-60
2017-12-31T13:56:31.733Z,-64
2017-12-31T13:59:00.920Z,-64
2017-12-31T14:01:29.704Z,-60
2017-12-31T14:03:58.849Z,-61
2017-12-31T14:06:27.736Z,-60
2017-12-31T14:08:55.856Z,-63
2017-12-31T14:11:23.968Z,-62
2017-12-31T14:13:52.104Z,-59
2017-12-31T14:16:20.248Z,-61
2017-12-31T14:18:48.372Z,-62
2017-12-31T14:21:18.013Z,-63
2017-12-31T14:23:46.885Z,-64
2017-12-31T14:26:16.393Z,-63
2017-12-31T14:28:44.528Z,-65
2017-12-31T14:31:12.704Z,-63
2017-12-31T14:33:40.831Z,-64
2017-12-31T14:36:09.707Z,-59
2017-12-31T14:38:37.845Z,-64
2017-12-31T14:41:05.993Z,-63
2017-12-31T14:43:34.112Z,-62
2017-12-31T14:46:02.641Z,-63
2017-12-31T14:48:30.839Z,-63
2017-12-31T14:50:58.988Z,-63
2017-12-31T14:53:27.109Z,-63
2017-12-31T14:55:55.240Z,-63
2017-12-31T14:58:23.384Z,-63
2017-12-31T15:00:52.252Z,-63
2017-12-31T15:03:20.437Z,-65
2017-12-31T15:05:48.548Z,-63
2017-12-31T15:08:16.957Z,-63
2017-12-31T15:10:45.140Z,-63
2017-12-31T15:13:13.281Z,-63
2017-12-31T15:15:41.420Z,-63
2017-12-31T15:18:09.616Z,-64
2017-12-31T15:20:38.522Z,-64
2017-12-31T15:23:06.680Z,-64
2017-12-31T15:25:35.560Z,-64
2017-12-31T15:28:03.724Z,-64
2017-12-31T15:30:31.860Z,-64
2017-12-31T15:33:00.316Z,-64
2017-12-31T15:35:28.488Z,-66
2017-12-31T15:37:56.613Z,-64
2017-12-31T15:40:24.804Z,-64
2017-12-31T15:42:53.685Z,-64
2017-12-31T15:45:21.833Z,-64
2017-12-31T15:47:50.006Z,-63
2017-12-31T15:50:18.162Z,-62
2017-12-31T15:52:46.305Z,-62
2017-12-31T15:55:15.176Z,-64
2017-12-31T15:57:43.313Z,-62
2017-12-31T16:00:11.493Z,-62
2017-12-31T16:02:39.647Z,-63
2017-12-31T16:05:07.785Z,-62
2017-12-31T16:07:36.376Z,-62
2017-12-31T16:10:05.246Z,-63
2017-12-31T16:12:33.371Z,-63
2017-12-31T16:15:01.535Z,-62
2017-12-31T16:17:29.696Z,-63
2017-12-31T16:19:58.608Z,-63
2017-12-31T16:22:26.791Z,-64
2017-12-31T16:24:54.925Z,-64
2017-12-31T16:27:23.809Z,-64
2017-12-31T16:29:53.116Z,-64
2017-12-31T16:32:21.985Z,-66
2017-12-31T16:34:50.152Z,-63
2017-12-31T16:37:18.340Z,-63
2017-12-31T16:39:46.484Z,-65
2017-12-31T16:42:14.646Z,-64
2017-12-31T16:44:42.761Z,-64
2017-12-31T16:47:10.961Z,-64
2017-12-31T16:49:39.139Z,-64
2017-12-31T16:52:07.257Z,-64
2017-12-31T16:54:35.694Z,-65
2017-12-31T16:57:03.880Z,-65
2017-12-31T16:59:32.694Z,-62
2017-12-31T17:02:01.753Z,-62
2017-12-31T17:04:31.072Z,-62
2017-12-31T17:07:00.138Z,-63
2017-12-31T17:09:29.712Z,-60
2017-12-31T17:11:58.036Z,-59
2017-12-31T17:14:26.464Z,-61
2017-12-31T17:16:55.118Z,-61
2017-12-31T17:19:24.946Z,-61
2017-12-31T17:21:53.261Z,-63
2017-12-31T17:24:22.419Z,-62
2017-12-31T17:26:51.434Z,-62
2017-12-31T17:29:20.328Z,-61
2017-12-31T17:31:48.477Z,-59
2017-12-31T17:34:17.086Z,-61
2017-12-31T17:36:45.965Z,-61
2017-12-31T17:39:14.492Z,-62
2017-12-31T17:41:45.765Z,-59
2017-12-31T17:44:14.653Z,-59
2017-12-31T17:46:42.799Z,-61
2017-12-31T17:49:11.669Z,-61
2017-12-31T17:51:39.784Z,-61
2017-12-31T17:54:07.964Z,-61
2017-12-31T17:56:36.112Z,-61
2017-12-31T17:59:05.033Z,-61
2017-12-31T18:01:33.175Z,-61
2017-12-31T18:04:01.313Z,-60
2017-12-31T18:06:29.448Z,-61
2017-12-31T18:08:57.908Z,-62
2017-12-31T18:11:26.853Z,-62
2017-12-31T18:13:55.027Z,-62
2017-12-31T18:16:23.168Z,-61
2017-12-31T18:18:51.296Z,-62
2017-12-31T18:21:19.416Z,-61
2017-12-31T18:23:47.558Z,-61
2017-12-31T18:26:16.444Z,-62
2017-12-31T18:28:44.568Z,-61
2017-12-31T18:31:13.433Z,-62
2017-12-31T18:33:42.702Z,-62
2017-12-31T18:36:10.869Z,-63
2017-12-31T18:38:38.989Z,-62
2017-12-31T18:41:07.138Z,-61
2017-12-31T18:43:36.022Z,-61
2017-12-31T18:46:04.145Z,-62
2017-12-31T18:48:32.568Z,-61
2017-12-31T18:51:03.486Z,-61
2017-12-31T18:53:31.620Z,-62
2017-12-31T18:55:59.749Z,-61
2017-12-31T18:58:28.076Z,-61
2017-12-31T19:00:57.241Z,-58
2017-12-31T19:03:27.129Z,-60
2017-12-31T19:05:55.771Z,-60
2017-12-31T19:08:25.030Z,-61
2017-12-31T19:10:56.036Z,-60
2017-12-31T19:13:24.633Z,-61
2017-12-31T19:15:55.405Z,-59
2017-12-31T19:18:23.935Z,-63
2017-12-31T19:20:52.790Z,-64
2017-12-31T19:23:21.412Z,-63
2017-12-31T19:25:49.945Z,-63
2017-12-31T19:28:18.473Z,-64
2017-12-31T19:30:47.229Z,-64
2017-12-31T19:33:16.805Z,-63
2017-12-31T19:35:45.289Z,-63
2017-12-31T19:38:14.312Z,-64
2017-12-31T19:40:43.214Z,-63
2017-12-31T19:43:11.408Z,-64
2017-12-31T19:45:39.825Z,-63
2017-12-31T19:48:08.593Z,-63
2017-12-31T19:50:37.316Z,-63
2017-12-31T19:53:05.456Z,-63
2017-12-31T19:55:33.996Z,-65
2017-12-31T19:58:02.177Z,-65
2017-12-31T20:00:30.296Z,-65
2017-12-31T20:02:58.432Z,-65
2017-12-31T20:05:26.569Z,-62
2017-12-31T20:07:55.412Z,-63
2017-12-31T20:10:23.532Z,-64
2017-12-31T20:12:52.441Z,-62
2017-12-31T20:15:21.306Z,-63
2017-12-31T20:17:49.640Z,-63
2017-12-31T20:20:17.760Z,-64
2017-12-31T20:22:46.608Z,-65
2017-12-31T20:25:15.031Z,-64
2017-12-31T20:27:43.900Z,-61
2017-12-31T20:30:12.025Z,-61
2017-12-31T20:32:40.155Z,-62
2017-12-31T20:35:09.772Z,-62
2017-12-31T20:37:37.914Z,-61
2017-12-31T20:40:06.332Z,-65
2017-12-31T20:42:35.230Z,-62
2017-12-31T20:45:04.125Z,-61
2017-12-31T20:47:33.077Z,-62
2017-12-31T20:50:03.769Z,-61
2017-12-31T20:52:32.679Z,-61
2017-12-31T20:55:02.572Z,-59
2017-12-31T20:57:35.593Z,-63
2017-12-31T21:00:05.436Z,-63
2017-12-31T21:02:35.017Z,-60
2017-12-31T21:05:04.453Z,-64
2017-12-31T21:07:33.089Z,-64
2017-12-31T21:10:02.578Z,-59
2017-12-31T21:13:02.353Z,-64
2017-12-31T21:15:31.008Z,-64
2017-12-31T21:17:59.770Z,-61
2017-12-31T21:20:28.077Z,-62
2017-12-31T21:22:57.800Z,-64
2017-12-31T21:25:27.357Z,-61
2017-12-31T21:27:56.497Z,-64
2017-12-31T21:30:25.956Z,-63
2017-12-31T21:32:54.341Z,-63
2017-12-31T21:35:23.008Z,-64
2017-12-31T21:37:52.465Z,-59
2017-12-31T21:40:20.649Z,-65
2017-12-31T21:42:49.949Z,-62
2017-12-31T21:45:19.033Z,-63
2017-12-31T21:47:47.778Z,-64
2017-12-31T21:50:17.888Z,-63
2017-12-31T21:52:48.343Z,-60
2017-12-31T21:55:17.003Z,-64
2017-12-31T21:57:46.890Z,-59
2017-12-31T22:00:16.113Z,-64
2017-12-31T22:02:46.768Z,-62
2017-12-31T22:05:16.489Z,-64
2017-12-31T22:07:45.236Z,-63
2017-12-31T22:10:15.594Z,-64
2017-12-31T22:12:44.788Z,-60
2017-12-31T22:15:13.772Z,-60
2017-12-31T22:17:42.912Z,-60
2017-12-31T22:20:11.245Z,-64
2017-12-31T22:22:40.698Z,-64
2017-12-31T22:25:09.770Z,-62
2017-12-31T22:27:40.700Z,-63
2017-12-31T22:30:09.183Z,-64
2017-12-31T22:32:38.261Z,-64
2017-12-31T22:35:09.251Z,-64
2017-12-31T22:37:37.813Z,-63
2017-12-31T22:40:06.320Z,-63
2017-12-31T22:42:35.706Z,-63
2017-12-31T22:45:04.308Z,-62
2017-12-31T22:47:32.484Z,-64
2017-12-31T22:50:02.148Z,-63
2017-12-31T22:52:31.215Z,-60
2017-12-31T22:54:59.556Z,-66
2017-12-31T22:57:27.875Z,-65
2017-12-31T22:59:58.353Z,-63
2017-12-31T23:02:27.014Z,-64
2017-12-31T23:04:57.231Z,-63
2017-12-31T23:07:26.756Z,-61
2017-12-31T23:09:55.739Z,-57
2017-12-31T23:12:24.220Z,-63
2017-12-31T23:14:52.765Z,-62
2017-12-31T23:17:21.930Z,-63
2017-12-31T23:19:52.036Z,-64
2017-12-31T23:22:20.840Z,-61
2017-12-31T23:24:49.173Z,-64
2017-12-31T23:27:19.061Z,-61
2017-12-31T23:29:47.482Z,-60
2017-12-31T23:32:18.653Z,-62
2017-12-31T23:34:47.394Z,-61
2017-12-31T23:37:16.354Z,-63
2017-12-31T23:39:45.615Z,-60
2017-12-31T23:42:14.009Z,-62
2017-12-31T23:44:42.528Z,-65
2017-12-31T23:47:11.199Z,-62
2017-12-31T23:49:40.125Z,-60
2017-12-31T23:52:11.906Z,-62
2017-12-31T23:54:40.297Z,-62
2017-12-31T23:57:08.440Z,-65
2017-12-31T23:59:36.761Z,-64
